createdAt,value
2022-10-04T00:01:18.642Z,100
2022-10-04T00:12:39.441Z,94
2022-10-04T00:18:19.627Z,96
2022-10-04T00:24:00.226Z,100
2022-10-04T00:35:20.459Z,90
2022-10-04T00:46:40.984Z,90
2022-10-04T00:52:21.033Z,94
2022-10-04T00:58:01.403Z,102
2022-10-04T01:03:41.503Z,90
2022-10-04T01:09:21.728Z,96
2022-10-04T01:15:05.326Z,90
2022-10-04T01:20:45.540Z,100
2022-10-04T01:26:25.978Z,104
2022-10-04T01:32:06.316Z,94
2022-10-04T01:37:46.279Z,94
2022-10-04T01:43:27.223Z,102
2022-10-04T01:49:07.920Z,100
2022-10-04T01:54:51.280Z,98
2022-10-04T02:06:14.511Z,90
2022-10-04T02:11:54.629Z,94
2022-10-04T02:17:34.752Z,98
2022-10-04T02:23:15.470Z,98
2022-10-04T02:28:55.641Z,100
2022-10-04T02:51:37.061Z,94
2022-10-04T02:57:17.340Z,94
2022-10-04T03:02:57.520Z,98
2022-10-04T03:08:37.663Z,94
2022-10-04T03:14:17.896Z,104
2022-10-04T03:19:58.081Z,96
2022-10-04T03:25:38.267Z,100
2022-10-04T03:31:19.518Z,94
2022-10-04T03:36:59.783Z,104
2022-10-04T03:42:40.124Z,98
2022-10-04T03:48:20.891Z,94
2022-10-04T03:54:01.003Z,100
2022-10-04T03:59:41.060Z,92
2022-10-04T04:05:21.630Z,92
2022-10-04T04:11:02.212Z,98
2022-10-04T04:16:42.917Z,92
2022-10-04T04:22:23.337Z,90
2022-10-04T04:39:25.092Z,100
2022-10-04T04:45:05.400Z,88
2022-10-04T04:50:45.864Z,94
2022-10-04T04:56:26.442Z,86
2022-10-04T05:02:07.086Z,90
2022-10-04T05:07:47.341Z,98
2022-10-04T05:13:28.267Z,90
2022-10-04T05:19:08.397Z,96
2022-10-04T05:24:48.482Z,92
2022-10-04T05:30:28.681Z,90
2022-10-04T05:36:08.770Z,90
2022-10-04T05:41:49.089Z,94
2022-10-04T05:47:29.461Z,92
2022-10-04T05:53:09.579Z,100
2022-10-04T05:58:49.687Z,88
2022-10-04T06:04:30.531Z,98
2022-10-04T06:10:11.081Z,88
2022-10-04T06:32:52.613Z,86
2022-10-04T06:38:33.129Z,100
2022-10-04T06:44:13.675Z,100
2022-10-04T06:49:54.141Z,86
2022-10-04T06:55:34.958Z,96
2022-10-04T07:01:15.899Z,92
2022-10-04T07:06:56.420Z,90
2022-10-04T07:12:37.623Z,106
2022-10-04T07:18:17.797Z,94
2022-10-04T07:24:01.180Z,100
2022-10-04T07:41:03.108Z,104
2022-10-04T07:46:44.230Z,106
2022-10-04T07:52:24.754Z,106
2022-10-04T07:58:06.759Z,104
2022-10-04T08:03:47.002Z,108
2022-10-04T08:09:28.025Z,96
2022-10-04T08:15:08.160Z,112
2022-10-04T08:32:11.299Z,110
2022-10-04T08:37:51.850Z,94
2022-10-04T08:43:32.677Z,98
2022-10-04T08:49:12.690Z,54
2022-10-04T08:54:53.870Z,24
2022-10-04T09:00:34.265Z,26
2022-10-04T09:06:14.706Z,36
2022-10-04T09:11:54.832Z,30
2022-10-04T09:17:35.043Z,24
2022-10-04T09:23:15.606Z,16
2022-10-04T09:29:08.818Z,30
2022-10-04T09:34:54.011Z,16
2022-10-04T09:40:34.989Z,4
2022-10-04T09:46:19.777Z,2
2022-10-04T09:57:02.517Z,5
2022-10-04T10:02:50.135Z,4
2022-10-04T10:08:31.183Z,8
2022-10-04T10:14:13.840Z,4
2022-10-04T10:19:54.778Z,10
2022-10-04T10:36:58.460Z,8
2022-10-04T10:42:38.216Z,6
2022-10-04T10:48:21.867Z,8
2022-10-04T10:54:02.253Z,18
2022-10-04T10:59:42.750Z,4
2022-10-04T11:11:14.857Z,0
2022-10-04T11:16:55.676Z,0
2022-10-04T11:22:39.618Z,0
2022-10-04T11:28:21.253Z,0
2022-10-04T11:34:07.834Z,22
2022-10-04T11:39:48.208Z,96
2022-10-04T11:45:29.113Z,14
2022-10-04T11:57:04.592Z,2
2022-10-04T12:02:48.279Z,0
2022-10-04T12:08:35.167Z,0
2022-10-04T12:20:00.446Z,2
2022-10-04T12:31:38.081Z,0
2022-10-04T12:37:28.768Z,0
2022-10-04T12:43:14.904Z,2
2022-10-04T12:48:59.743Z,0
2022-10-04T12:54:46.711Z,0
2022-10-04T13:00:27.276Z,0
2022-10-04T13:06:10.092Z,0
2022-10-04T13:11:58.050Z,2
2022-10-04T13:17:44.512Z,0
2022-10-04T13:23:24.869Z,14
2022-10-04T13:29:12.557Z,14
2022-10-04T13:34:53.079Z,0
2022-10-04T13:40:39.923Z,2
2022-10-04T13:52:14.093Z,2
2022-10-04T13:58:23.153Z,4
2022-10-04T14:04:15.910Z,10
2022-10-04T14:09:59.010Z,10
2022-10-04T14:15:39.463Z,20
2022-10-04T14:21:33.092Z,20
2022-10-04T14:27:13.445Z,98
2022-10-04T14:32:56.493Z,84
2022-10-04T14:38:39.647Z,76
2022-10-04T14:44:22.186Z,94
2022-10-04T14:50:03.192Z,106
2022-10-04T14:55:43.873Z,94
2022-10-04T15:01:25.903Z,90
2022-10-04T15:13:13.981Z,88
2022-10-04T15:24:34.738Z,94
2022-10-04T15:30:15.547Z,82
2022-10-04T15:35:55.819Z,78
2022-10-04T15:41:36.455Z,88
2022-10-04T15:47:17.172Z,94
2022-10-04T15:52:57.454Z,94
2022-10-04T15:58:37.968Z,94
2022-10-04T16:04:18.520Z,92
2022-10-04T16:09:59.700Z,92
2022-10-04T16:15:40.832Z,90
2022-10-04T16:21:21.202Z,90
2022-10-04T16:27:03.982Z,90
2022-10-04T16:32:44.214Z,68
2022-10-04T16:38:24.447Z,90
2022-10-04T16:44:04.626Z,86
2022-10-04T16:49:44.660Z,76
2022-10-04T17:01:06.354Z,90
2022-10-04T17:12:32.334Z,90
2022-10-04T17:18:12.713Z,84
2022-10-04T17:23:53.233Z,64
2022-10-04T17:29:33.699Z,88
2022-10-04T17:40:57.088Z,82
2022-10-04T17:46:38.455Z,82
2022-10-04T17:52:19.954Z,74
2022-10-04T17:58:00.978Z,96
2022-10-04T18:03:41.681Z,114
2022-10-04T18:09:21.886Z,106
2022-10-04T18:15:02.232Z,94
2022-10-04T18:20:42.715Z,106
2022-10-04T18:26:22.973Z,92
2022-10-04T18:32:03.206Z,100
2022-10-04T18:37:43.621Z,96
2022-10-04T18:43:26.742Z,110
2022-10-04T19:06:09.815Z,110
2022-10-04T19:11:50.819Z,106
2022-10-04T19:17:34.025Z,102
2022-10-04T19:23:14.622Z,106
2022-10-04T19:28:55.495Z,96
2022-10-04T19:34:35.723Z,94
2022-10-04T19:40:16.371Z,108
2022-10-04T19:45:57.602Z,100
2022-10-04T19:51:38.061Z,108
2022-10-04T19:57:18.362Z,104
2022-10-04T20:02:58.788Z,100
2022-10-04T20:08:38.933Z,90
2022-10-04T20:19:59.756Z,102
2022-10-04T20:25:39.734Z,96
2022-10-04T20:31:20.632Z,94
2022-10-04T20:37:01.065Z,104
2022-10-04T20:48:21.538Z,106
2022-10-04T20:54:02.169Z,104
2022-10-04T20:59:42.987Z,98
2022-10-04T21:05:23.680Z,112
2022-10-04T21:11:03.934Z,96
2022-10-04T21:16:48.214Z,104
2022-10-04T21:22:28.525Z,94
2022-10-04T21:28:09.588Z,102
2022-10-04T21:33:50.119Z,104
2022-10-04T21:39:30.419Z,104
2022-10-04T21:45:10.719Z,90
2022-10-04T21:56:30.652Z,98
2022-10-04T22:02:11.694Z,104
2022-10-04T22:07:52.795Z,106
2022-10-04T22:13:32.982Z,90
2022-10-04T22:19:13.687Z,110
2022-10-04T22:24:53.924Z,92
2022-10-04T22:41:55.024Z,106
2022-10-04T22:47:35.323Z,92
2022-10-04T22:53:16.047Z,102
2022-10-04T22:58:56.534Z,92
2022-10-04T23:04:37.923Z,94
2022-10-04T23:10:18.413Z,82
2022-10-04T23:15:59.598Z,94
2022-10-04T23:21:39.825Z,94
2022-10-04T23:27:20.545Z,102
2022-10-04T23:33:01.074Z,104
2022-10-04T23:38:41.636Z,102
2022-10-04T23:44:22.015Z,110
2022-10-04T23:55:04.232Z,106
